sensor_id;sensor_type;location;lat;lon;timestamp;temperature;humidity
6256;DHT22;3161;48.794;9.784;2022-08-19T00:01:34;21.30;99.90
6256;DHT22;3161;48.794;9.784;2022-08-19T00:04:06;21.30;99.90
6256;DHT22;3161;48.794;9.784;2022-08-19T00:06:35;21.20;99.90
6256;DHT22;3161;48.794;9.784;2022-08-19T00:09:05;21.20;99.90
6256;DHT22;3161;48.794;9.784;2022-08-19T00:11:33;21.20;99.90
6256;DHT22;3161;48.794;9.784;2022-08-19T00:14:04;21.20;99.90
6256;DHT22;3161;48.794;9.784;2022-08-19T00:16:32;21.20;99.90
6256;DHT22;3161;48.794;9.784;2022-08-19T00:19:00;21.20;99.90
6256;DHT22;3161;48.794;9.784;2022-08-19T00:21:27;21.20;99.90
6256;DHT22;3161;48.794;9.784;2022-08-19T00:23:56;21.20;99.90
6256;DHT22;3161;48.794;9.784;2022-08-19T00:26:27;21.20;99.90
6256;DHT22;3161;48.794;9.784;2022-08-19T00:28:55;21.20;99.90
6256;DHT22;3161;48.794;9.784;2022-08-19T00:31:23;21.20;99.90
6256;DHT22;3161;48.794;9.784;2022-08-19T00:33:51;21.30;99.90
6256;DHT22;3161;48.794;9.784;2022-08-19T00:36:19;21.20;99.90
6256;DHT22;3161;48.794;9.784;2022-08-19T00:38:47;21.20;99.90
6256;DHT22;3161;48.794;9.784;2022-08-19T00:41:18;21.20;99.90
6256;DHT22;3161;48.794;9.784;2022-08-19T00:44:08;21.20;99.90
6256;DHT22;3161;48.794;9.784;2022-08-19T00:46:39;21.20;99.90
6256;DHT22;3161;48.794;9.784;2022-08-19T00:49:31;21.20;99.90
6256;DHT22;3161;48.794;9.784;2022-08-19T00:51:47;21.20;99.90
6256;DHT22;3161;48.794;9.784;2022-08-19T00:54:15;21.20;99.90
6256;DHT22;3161;48.794;9.784;2022-08-19T00:56:43;21.10;99.90
6256;DHT22;3161;48.794;9.784;2022-08-19T00:59:13;21.00;99.90
6256;DHT22;3161;48.794;9.784;2022-08-19T01:01:42;21.00;99.90
6256;DHT22;3161;48.794;9.784;2022-08-19T01:04:11;21.00;99.90
6256;DHT22;3161;48.794;9.784;2022-08-19T01:06:40;21.00;99.90
6256;DHT22;3161;48.794;9.784;2022-08-19T01:09:10;20.90;99.90
6256;DHT22;3161;48.794;9.784;2022-08-19T01:11:40;20.90;99.90
6256;DHT22;3161;48.794;9.784;2022-08-19T01:14:09;20.80;99.90
6256;DHT22;3161;48.794;9.784;2022-08-19T01:16:37;20.80;99.90
6256;DHT22;3161;48.794;9.784;2022-08-19T01:19:24;20.80;99.90
6256;DHT22;3161;48.794;9.784;2022-08-19T01:22:03;20.80;99.90
6256;DHT22;3161;48.794;9.784;2022-08-19T01:24:25;20.80;99.90
6256;DHT22;3161;48.794;9.784;2022-08-19T01:26:53;20.80;99.90
6256;DHT22;3161;48.794;9.784;2022-08-19T01:29:21;20.80;99.90
6256;DHT22;3161;48.794;9.784;2022-08-19T01:31:48;20.70;99.90
6256;DHT22;3161;48.794;9.784;2022-08-19T01:34:18;20.80;99.90
6256;DHT22;3161;48.794;9.784;2022-08-19T01:36:47;20.70;99.90
6256;DHT22;3161;48.794;9.784;2022-08-19T01:39:23;20.70;99.90
6256;DHT22;3161;48.794;9.784;2022-08-19T01:41:47;20.60;99.90
6256;DHT22;3161;48.794;9.784;2022-08-19T01:44:15;20.60;99.90
6256;DHT22;3161;48.794;9.784;2022-08-19T01:46:45;20.60;99.90
6256;DHT22;3161;48.794;9.784;2022-08-19T01:49:14;20.60;99.90
6256;DHT22;3161;48.794;9.784;2022-08-19T01:51:42;20.60;99.90
6256;DHT22;3161;48.794;9.784;2022-08-19T01:54:11;20.60;99.90
6256;DHT22;3161;48.794;9.784;2022-08-19T01:56:39;20.60;99.90
6256;DHT22;3161;48.794;9.784;2022-08-19T01:59:16;20.60;99.90
6256;DHT22;3161;48.794;9.784;2022-08-19T02:01:40;20.60;99.90
6256;DHT22;3161;48.794;9.784;2022-08-19T02:04:07;20.60;99.90
6256;DHT22;3161;48.794;9.784;2022-08-19T02:06:35;20.60;99.90
6256;DHT22;3161;48.794;9.784;2022-08-19T02:09:04;20.60;99.90
6256;DHT22;3161;48.794;9.784;2022-08-19T02:11:34;20.50;99.90
6256;DHT22;3161;48.794;9.784;2022-08-19T02:14:05;20.50;99.90
6256;DHT22;3161;48.794;9.784;2022-08-19T02:16:33;20.50;99.90
6256;DHT22;3161;48.794;9.784;2022-08-19T02:19:01;20.50;99.90
6256;DHT22;3161;48.794;9.784;2022-08-19T02:21:30;20.50;99.90
6256;DHT22;3161;48.794;9.784;2022-08-19T02:23:57;20.50;99.90
6256;DHT22;3161;48.794;9.784;2022-08-19T02:26:25;20.50;99.90
6256;DHT22;3161;48.794;9.784;2022-08-19T02:28:53;20.40;99.90
6256;DHT22;3161;48.794;9.784;2022-08-19T02:31:23;20.40;99.90
6256;DHT22;3161;48.794;9.784;2022-08-19T02:33:51;20.30;99.90
6256;DHT22;3161;48.794;9.784;2022-08-19T02:36:19;20.40;99.90
6256;DHT22;3161;48.794;9.784;2022-08-19T02:38:48;20.40;99.90
6256;DHT22;3161;48.794;9.784;2022-08-19T02:41:18;20.30;99.90
6256;DHT22;3161;48.794;9.784;2022-08-19T02:43:46;20.30;99.90
6256;DHT22;3161;48.794;9.784;2022-08-19T02:46:17;20.30;99.90
6256;DHT22;3161;48.794;9.784;2022-08-19T02:48:51;20.30;99.90
6256;DHT22;3161;48.794;9.784;2022-08-19T02:51:18;20.30;99.90
6256;DHT22;3161;48.794;9.784;2022-08-19T02:53:45;20.40;99.90
6256;DHT22;3161;48.794;9.784;2022-08-19T02:56:13;20.40;99.90
6256;DHT22;3161;48.794;9.784;2022-08-19T02:58:42;20.30;99.90
6256;DHT22;3161;48.794;9.784;2022-08-19T03:01:10;20.30;99.90
6256;DHT22;3161;48.794;9.784;2022-08-19T03:03:39;20.30;99.90
6256;DHT22;3161;48.794;9.784;2022-08-19T03:06:09;20.30;99.90
6256;DHT22;3161;48.794;9.784;2022-08-19T03:08:38;20.30;99.90
6256;DHT22;3161;48.794;9.784;2022-08-19T03:11:05;20.30;99.90
6256;DHT22;3161;48.794;9.784;2022-08-19T03:13:33;20.30;99.90
6256;DHT22;3161;48.794;9.784;2022-08-19T03:16:03;20.30;99.90
6256;DHT22;3161;48.794;9.784;2022-08-19T03:18:32;20.30;99.90
6256;DHT22;3161;48.794;9.784;2022-08-19T03:20:59;20.30;99.90
6256;DHT22;3161;48.794;9.784;2022-08-19T03:23:27;20.30;99.90
6256;DHT22;3161;48.794;9.784;2022-08-19T03:25:54;20.20;99.90
6256;DHT22;3161;48.794;9.784;2022-08-19T03:28:22;20.10;99.90
6256;DHT22;3161;48.794;9.784;2022-08-19T03:30:58;20.10;99.90
6256;DHT22;3161;48.794;9.784;2022-08-19T03:33:27;20.10;99.90
6256;DHT22;3161;48.794;9.784;2022-08-19T03:36:14;20.10;99.90
6256;DHT22;3161;48.794;9.784;2022-08-19T03:38:44;20.00;99.90
6256;DHT22;3161;48.794;9.784;2022-08-19T03:41:21;20.00;99.90
6256;DHT22;3161;48.794;9.784;2022-08-19T03:43:49;20.00;99.90
6256;DHT22;3161;48.794;9.784;2022-08-19T03:46:20;20.00;99.90
6256;DHT22;3161;48.794;9.784;2022-08-19T03:48:50;19.90;99.90
6256;DHT22;3161;48.794;9.784;2022-08-19T03:51:26;19.90;99.90
6256;DHT22;3161;48.794;9.784;2022-08-19T03:53:55;19.90;99.90
6256;DHT22;3161;48.794;9.784;2022-08-19T03:56:23;19.90;99.90
6256;DHT22;3161;48.794;9.784;2022-08-19T03:58:52;20.00;99.90
6256;DHT22;3161;48.794;9.784;2022-08-19T04:01:22;20.00;99.90
6256;DHT22;3161;48.794;9.784;2022-08-19T04:03:53;20.00;99.90
6256;DHT22;3161;48.794;9.784;2022-08-19T04:06:24;20.00;99.90
6256;DHT22;3161;48.794;9.784;2022-08-19T04:08:53;20.00;99.90
6256;DHT22;3161;48.794;9.784;2022-08-19T04:11:23;19.90;99.90
6256;DHT22;3161;48.794;9.784;2022-08-19T04:13:52;19.90;99.90
6256;DHT22;3161;48.794;9.784;2022-08-19T04:16:23;19.90;99.90
6256;DHT22;3161;48.794;9.784;2022-08-19T04:18:51;19.80;99.90
6256;DHT22;3161;48.794;9.784;2022-08-19T04:21:22;19.80;99.90
6256;DHT22;3161;48.794;9.784;2022-08-19T04:23:49;19.80;99.90
6256;DHT22;3161;48.794;9.784;2022-08-19T04:26:20;19.80;99.90
6256;DHT22;3161;48.794;9.784;2022-08-19T04:28:48;19.80;99.90
6256;DHT22;3161;48.794;9.784;2022-08-19T04:31:20;19.90;99.90
6256;DHT22;3161;48.794;9.784;2022-08-19T04:33:48;19.90;99.90
6256;DHT22;3161;48.794;9.784;2022-08-19T04:36:22;19.90;99.90
6256;DHT22;3161;48.794;9.784;2022-08-19T04:38:50;19.90;99.90
6256;DHT22;3161;48.794;9.784;2022-08-19T04:41:19;19.90;99.90
6256;DHT22;3161;48.794;9.784;2022-08-19T04:44:04;19.90;99.90
6256;DHT22;3161;48.794;9.784;2022-08-19T04:46:33;19.90;99.90
6256;DHT22;3161;48.794;9.784;2022-08-19T04:49:03;19.90;99.90
6256;DHT22;3161;48.794;9.784;2022-08-19T04:51:32;19.80;99.90
6256;DHT22;3161;48.794;9.784;2022-08-19T04:54:02;19.80;99.90
6256;DHT22;3161;48.794;9.784;2022-08-19T04:56:30;19.80;99.90
6256;DHT22;3161;48.794;9.784;2022-08-19T04:58:58;19.80;99.90
6256;DHT22;3161;48.794;9.784;2022-08-19T05:01:29;19.80;99.90
6256;DHT22;3161;48.794;9.784;2022-08-19T05:04:00;19.80;99.90
6256;DHT22;3161;48.794;9.784;2022-08-19T05:06:28;19.80;99.90
6256;DHT22;3161;48.794;9.784;2022-08-19T05:08:58;19.80;99.90
6256;DHT22;3161;48.794;9.784;2022-08-19T05:11:28;19.80;99.90
6256;DHT22;3161;48.794;9.784;2022-08-19T05:13:56;19.80;99.90
6256;DHT22;3161;48.794;9.784;2022-08-19T05:16:26;19.80;99.90
6256;DHT22;3161;48.794;9.784;2022-08-19T05:18:55;19.80;99.90
6256;DHT22;3161;48.794;9.784;2022-08-19T05:21:42;19.70;99.90
6256;DHT22;3161;48.794;9.784;2022-08-19T05:24:28;19.70;99.90
6256;DHT22;3161;48.794;9.784;2022-08-19T05:26:56;19.70;99.90
6256;DHT22;3161;48.794;9.784;2022-08-19T05:29:26;19.70;99.90
6256;DHT22;3161;48.794;9.784;2022-08-19T05:31:55;19.70;99.90
6256;DHT22;3161;48.794;9.784;2022-08-19T05:34:24;19.70;99.90
6256;DHT22;3161;48.794;9.784;2022-08-19T05:36:54;19.70;99.90
6256;DHT22;3161;48.794;9.784;2022-08-19T05:39:26;19.70;99.90
6256;DHT22;3161;48.794;9.784;2022-08-19T05:41:56;19.80;99.90
6256;DHT22;3161;48.794;9.784;2022-08-19T05:44:26;19.80;99.90
6256;DHT22;3161;48.794;9.784;2022-08-19T05:46:56;19.80;99.90
6256;DHT22;3161;48.794;9.784;2022-08-19T05:49:24;19.80;99.90
6256;DHT22;3161;48.794;9.784;2022-08-19T05:51:52;19.80;99.90
6256;DHT22;3161;48.794;9.784;2022-08-19T05:54:22;19.90;99.90
6256;DHT22;3161;48.794;9.784;2022-08-19T05:56:51;19.80;99.90
6256;DHT22;3161;48.794;9.784;2022-08-19T05:59:20;19.90;99.90
6256;DHT22;3161;48.794;9.784;2022-08-19T06:01:49;19.90;99.90
6256;DHT22;3161;48.794;9.784;2022-08-19T06:04:19;19.90;99.90
6256;DHT22;3161;48.794;9.784;2022-08-19T06:06:48;19.90;99.90
6256;DHT22;3161;48.794;9.784;2022-08-19T06:09:17;19.90;99.90
6256;DHT22;3161;48.794;9.784;2022-08-19T06:11:49;19.90;99.90
6256;DHT22;3161;48.794;9.784;2022-08-19T06:14:25;19.90;99.90
6256;DHT22;3161;48.794;9.784;2022-08-19T06:16:52;19.90;99.90
6256;DHT22;3161;48.794;9.784;2022-08-19T06:19:22;19.90;99.90
6256;DHT22;3161;48.794;9.784;2022-08-19T06:21:52;19.80;99.90
6256;DHT22;3161;48.794;9.784;2022-08-19T06:24:23;19.80;99.90
6256;DHT22;3161;48.794;9.784;2022-08-19T06:26:53;19.80;99.90
6256;DHT22;3161;48.794;9.784;2022-08-19T06:29:23;19.80;99.90
6256;DHT22;3161;48.794;9.784;2022-08-19T06:31:53;19.80;99.90
6256;DHT22;3161;48.794;9.784;2022-08-19T06:34:22;19.80;99.90
6256;DHT22;3161;48.794;9.784;2022-08-19T06:36:51;19.80;99.90
6256;DHT22;3161;48.794;9.784;2022-08-19T06:39:25;19.80;99.90
6256;DHT22;3161;48.794;9.784;2022-08-19T06:41:55;19.80;99.90
6256;DHT22;3161;48.794;9.784;2022-08-19T06:44:25;19.80;99.90
6256;DHT22;3161;48.794;9.784;2022-08-19T06:46:54;19.80;99.90
6256;DHT22;3161;48.794;9.784;2022-08-19T06:49:23;19.80;99.90
6256;DHT22;3161;48.794;9.784;2022-08-19T06:51:51;19.80;99.90
6256;DHT22;3161;48.794;9.784;2022-08-19T06:54:19;19.80;99.90
6256;DHT22;3161;48.794;9.784;2022-08-19T06:56:47;19.80;99.90
6256;DHT22;3161;48.794;9.784;2022-08-19T06:59:17;19.80;99.90
6256;DHT22;3161;48.794;9.784;2022-08-19T07:01:49;19.80;99.90
6256;DHT22;3161;48.794;9.784;2022-08-19T07:04:25;19.90;99.90
6256;DHT22;3161;48.794;9.784;2022-08-19T07:06:48;19.90;99.90
6256;DHT22;3161;48.794;9.784;2022-08-19T07:09:17;19.90;99.90
6256;DHT22;3161;48.794;9.784;2022-08-19T07:11:48;19.80;99.90
6256;DHT22;3161;48.794;9.784;2022-08-19T07:14:18;19.80;99.90
6256;DHT22;3161;48.794;9.784;2022-08-19T07:16:48;19.80;99.90
6256;DHT22;3161;48.794;9.784;2022-08-19T07:19:17;19.80;99.90
6256;DHT22;3161;48.794;9.784;2022-08-19T07:21:47;19.80;99.90
6256;DHT22;3161;48.794;9.784;2022-08-19T07:24:16;19.80;99.90
6256;DHT22;3161;48.794;9.784;2022-08-19T07:26:44;19.80;99.90
6256;DHT22;3161;48.794;9.784;2022-08-19T07:29:12;19.80;99.90
6256;DHT22;3161;48.794;9.784;2022-08-19T07:31:39;19.70;99.90
6256;DHT22;3161;48.794;9.784;2022-08-19T07:34:10;19.70;99.90
6256;DHT22;3161;48.794;9.784;2022-08-19T07:36:39;19.70;99.90
6256;DHT22;3161;48.794;9.784;2022-08-19T07:39:11;19.70;99.90
6256;DHT22;3161;48.794;9.784;2022-08-19T07:41:41;19.70;99.90
6256;DHT22;3161;48.794;9.784;2022-08-19T07:44:09;19.70;99.90
6256;DHT22;3161;48.794;9.784;2022-08-19T07:46:41;19.70;99.90
6256;DHT22;3161;48.794;9.784;2022-08-19T07:49:11;19.70;99.90
6256;DHT22;3161;48.794;9.784;2022-08-19T07:51:41;19.70;99.90
6256;DHT22;3161;48.794;9.784;2022-08-19T07:54:08;19.70;99.90
6256;DHT22;3161;48.794;9.784;2022-08-19T07:56:36;19.70;99.90
6256;DHT22;3161;48.794;9.784;2022-08-19T07:59:03;19.70;99.90
6256;DHT22;3161;48.794;9.784;2022-08-19T08:01:31;19.70;99.90
6256;DHT22;3161;48.794;9.784;2022-08-19T08:03:59;19.70;99.90
6256;DHT22;3161;48.794;9.784;2022-08-19T08:06:44;19.80;99.90
6256;DHT22;3161;48.794;9.784;2022-08-19T08:09:33;19.70;99.90
6256;DHT22;3161;48.794;9.784;2022-08-19T08:12:04;19.70;99.90
6256;DHT22;3161;48.794;9.784;2022-08-19T08:14:36;19.70;99.90
6256;DHT22;3161;48.794;9.784;2022-08-19T08:17:09;19.70;99.90
6256;DHT22;3161;48.794;9.784;2022-08-19T08:19:56;19.70;99.90
6256;DHT22;3161;48.794;9.784;2022-08-19T08:22:24;19.70;99.90
6256;DHT22;3161;48.794;9.784;2022-08-19T08:25:18;19.70;99.90
6256;DHT22;3161;48.794;9.784;2022-08-19T08:27:42;19.70;99.90
6256;DHT22;3161;48.794;9.784;2022-08-19T08:30:18;19.70;99.90
6256;DHT22;3161;48.794;9.784;2022-08-19T08:32:45;19.70;99.90
6256;DHT22;3161;48.794;9.784;2022-08-19T08:35:15;19.70;99.90
6256;DHT22;3161;48.794;9.784;2022-08-19T08:37:44;19.60;99.90
6256;DHT22;3161;48.794;9.784;2022-08-19T08:40:25;19.60;99.90
6256;DHT22;3161;48.794;9.784;2022-08-19T08:45:43;19.60;99.90
6256;DHT22;3161;48.794;9.784;2022-08-19T08:48:30;19.50;99.90
6256;DHT22;3161;48.794;9.784;2022-08-19T08:50:52;19.50;99.90
6256;DHT22;3161;48.794;9.784;2022-08-19T08:53:22;19.50;99.90
6256;DHT22;3161;48.794;9.784;2022-08-19T08:55:50;19.50;99.90
6256;DHT22;3161;48.794;9.784;2022-08-19T08:58:32;19.60;99.90
6256;DHT22;3161;48.794;9.784;2022-08-19T09:00:58;19.60;99.90
6256;DHT22;3161;48.794;9.784;2022-08-19T09:03:27;19.60;99.90
6256;DHT22;3161;48.794;9.784;2022-08-19T09:08:48;19.60;99.90
6256;DHT22;3161;48.794;9.784;2022-08-19T09:16:47;19.60;99.90
6256;DHT22;3161;48.794;9.784;2022-08-19T09:19:15;19.60;99.90
6256;DHT22;3161;48.794;9.784;2022-08-19T09:21:44;19.60;99.90
6256;DHT22;3161;48.794;9.784;2022-08-19T09:24:12;19.60;99.90
6256;DHT22;3161;48.794;9.784;2022-08-19T09:26:39;19.70;99.90
6256;DHT22;3161;48.794;9.784;2022-08-19T09:29:09;19.70;99.90
6256;DHT22;3161;48.794;9.784;2022-08-19T09:31:36;19.70;99.90
6256;DHT22;3161;48.794;9.784;2022-08-19T09:34:05;19.70;99.90
6256;DHT22;3161;48.794;9.784;2022-08-19T09:36:33;19.70;99.90
6256;DHT22;3161;48.794;9.784;2022-08-19T09:39:04;19.70;99.90
6256;DHT22;3161;48.794;9.784;2022-08-19T09:41:32;19.80;99.90
6256;DHT22;3161;48.794;9.784;2022-08-19T09:44:01;19.80;99.90
6256;DHT22;3161;48.794;9.784;2022-08-19T09:46:29;19.90;99.90
6256;DHT22;3161;48.794;9.784;2022-08-19T09:48:59;20.00;99.90
6256;DHT22;3161;48.794;9.784;2022-08-19T09:51:27;20.00;99.90
6256;DHT22;3161;48.794;9.784;2022-08-19T09:54:01;20.10;99.90
6256;DHT22;3161;48.794;9.784;2022-08-19T09:56:30;20.10;99.90
6256;DHT22;3161;48.794;9.784;2022-08-19T09:59:00;20.20;99.90
6256;DHT22;3161;48.794;9.784;2022-08-19T10:01:29;20.20;99.90
6256;DHT22;3161;48.794;9.784;2022-08-19T10:03:58;20.30;99.90
6256;DHT22;3161;48.794;9.784;2022-08-19T10:06:28;20.40;99.90
6256;DHT22;3161;48.794;9.784;2022-08-19T10:08:58;20.40;99.90
6256;DHT22;3161;48.794;9.784;2022-08-19T10:11:27;20.40;99.90
6256;DHT22;3161;48.794;9.784;2022-08-19T10:13:55;20.50;99.90
6256;DHT22;3161;48.794;9.784;2022-08-19T10:16:23;20.50;99.90
6256;DHT22;3161;48.794;9.784;2022-08-19T10:18:53;20.50;99.90
6256;DHT22;3161;48.794;9.784;2022-08-19T10:21:24;20.60;99.90
6256;DHT22;3161;48.794;9.784;2022-08-19T10:23:54;20.60;99.90
6256;DHT22;3161;48.794;9.784;2022-08-19T10:26:26;20.60;99.90
6256;DHT22;3161;48.794;9.784;2022-08-19T10:28:55;20.60;99.90
6256;DHT22;3161;48.794;9.784;2022-08-19T10:31:27;20.60;99.90
6256;DHT22;3161;48.794;9.784;2022-08-19T10:33:55;20.50;99.90
6256;DHT22;3161;48.794;9.784;2022-08-19T10:36:29;20.60;99.90
6256;DHT22;3161;48.794;9.784;2022-08-19T10:39:00;20.50;99.90
6256;DHT22;3161;48.794;9.784;2022-08-19T10:41:31;20.60;99.90
6256;DHT22;3161;48.794;9.784;2022-08-19T10:44:03;20.60;99.90
6256;DHT22;3161;48.794;9.784;2022-08-19T10:46:30;20.50;99.90
6256;DHT22;3161;48.794;9.784;2022-08-19T10:49:00;20.50;99.90
6256;DHT22;3161;48.794;9.784;2022-08-19T10:51:30;20.60;99.90
6256;DHT22;3161;48.794;9.784;2022-08-19T10:54:16;20.50;99.90
6256;DHT22;3161;48.794;9.784;2022-08-19T10:56:44;20.50;99.90
6256;DHT22;3161;48.794;9.784;2022-08-19T10:59:23;20.50;99.90
6256;DHT22;3161;48.794;9.784;2022-08-19T11:01:58;20.50;99.90
6256;DHT22;3161;48.794;9.784;2022-08-19T11:04:23;20.50;99.90
6256;DHT22;3161;48.794;9.784;2022-08-19T11:06:51;20.50;99.90
6256;DHT22;3161;48.794;9.784;2022-08-19T11:09:21;20.40;99.90
6256;DHT22;3161;48.794;9.784;2022-08-19T11:11:53;20.50;99.90
6256;DHT22;3161;48.794;9.784;2022-08-19T11:14:21;20.40;99.90
6256;DHT22;3161;48.794;9.784;2022-08-19T11:16:52;20.40;99.90
6256;DHT22;3161;48.794;9.784;2022-08-19T11:19:23;20.40;99.90
6256;DHT22;3161;48.794;9.784;2022-08-19T11:21:51;20.40;99.90
6256;DHT22;3161;48.794;9.784;2022-08-19T11:24:23;20.50;99.90
6256;DHT22;3161;48.794;9.784;2022-08-19T11:26:53;20.50;99.90
6256;DHT22;3161;48.794;9.784;2022-08-19T11:29:22;20.50;99.90
6256;DHT22;3161;48.794;9.784;2022-08-19T11:31:52;20.50;99.90
6256;DHT22;3161;48.794;9.784;2022-08-19T11:34:22;20.50;99.90
6256;DHT22;3161;48.794;9.784;2022-08-19T11:36:50;20.50;99.90
6256;DHT22;3161;48.794;9.784;2022-08-19T11:39:21;20.50;99.90
6256;DHT22;3161;48.794;9.784;2022-08-19T11:41:49;20.50;99.90
6256;DHT22;3161;48.794;9.784;2022-08-19T11:44:16;20.50;99.90
6256;DHT22;3161;48.794;9.784;2022-08-19T11:46:45;20.50;99.90
6256;DHT22;3161;48.794;9.784;2022-08-19T11:49:15;20.50;99.90
6256;DHT22;3161;48.794;9.784;2022-08-19T11:51:45;20.50;99.90
6256;DHT22;3161;48.794;9.784;2022-08-19T11:54:14;20.50;99.90
6256;DHT22;3161;48.794;9.784;2022-08-19T11:56:45;20.40;99.90
6256;DHT22;3161;48.794;9.784;2022-08-19T11:59:14;20.40;99.90
6256;DHT22;3161;48.794;9.784;2022-08-19T12:01:42;20.30;99.90
6256;DHT22;3161;48.794;9.784;2022-08-19T12:04:10;20.30;99.90
6256;DHT22;3161;48.794;9.784;2022-08-19T12:06:40;20.20;99.90
6256;DHT22;3161;48.794;9.784;2022-08-19T12:09:09;20.20;99.90
6256;DHT22;3161;48.794;9.784;2022-08-19T12:11:38;20.20;99.90
6256;DHT22;3161;48.794;9.784;2022-08-19T12:14:11;20.10;99.90
6256;DHT22;3161;48.794;9.784;2022-08-19T12:16:40;20.10;99.90
6256;DHT22;3161;48.794;9.784;2022-08-19T12:19:08;20.10;99.90
6256;DHT22;3161;48.794;9.784;2022-08-19T12:21:36;20.00;99.90
6256;DHT22;3161;48.794;9.784;2022-08-19T12:24:05;20.00;99.90
6256;DHT22;3161;48.794;9.784;2022-08-19T12:26:33;20.00;99.90
6256;DHT22;3161;48.794;9.784;2022-08-19T12:29:00;20.00;99.90
6256;DHT22;3161;48.794;9.784;2022-08-19T12:31:29;20.00;99.90
6256;DHT22;3161;48.794;9.784;2022-08-19T12:33:57;20.00;99.90
6256;DHT22;3161;48.794;9.784;2022-08-19T12:36:25;20.00;99.90
6256;DHT22;3161;48.794;9.784;2022-08-19T12:38:52;20.00;99.90
6256;DHT22;3161;48.794;9.784;2022-08-19T12:41:20;20.00;99.90
6256;DHT22;3161;48.794;9.784;2022-08-19T12:43:49;20.00;99.90
6256;DHT22;3161;48.794;9.784;2022-08-19T12:46:18;19.90;99.90
6256;DHT22;3161;48.794;9.784;2022-08-19T12:48:46;19.90;99.90
6256;DHT22;3161;48.794;9.784;2022-08-19T12:51:16;19.90;99.90
6256;DHT22;3161;48.794;9.784;2022-08-19T12:53:46;19.90;99.90
6256;DHT22;3161;48.794;9.784;2022-08-19T12:56:16;20.00;99.90
6256;DHT22;3161;48.794;9.784;2022-08-19T12:58:45;20.00;99.90
6256;DHT22;3161;48.794;9.784;2022-08-19T13:01:15;20.00;99.90
6256;DHT22;3161;48.794;9.784;2022-08-19T13:03:44;20.00;99.90
6256;DHT22;3161;48.794;9.784;2022-08-19T13:06:13;19.90;99.90
6256;DHT22;3161;48.794;9.784;2022-08-19T13:08:41;19.90;99.90
6256;DHT22;3161;48.794;9.784;2022-08-19T13:11:11;19.90;99.90
6256;DHT22;3161;48.794;9.784;2022-08-19T13:13:41;19.90;99.90
6256;DHT22;3161;48.794;9.784;2022-08-19T13:16:10;19.90;99.90
6256;DHT22;3161;48.794;9.784;2022-08-19T13:18:40;19.80;99.90
6256;DHT22;3161;48.794;9.784;2022-08-19T13:21:10;19.80;99.90
6256;DHT22;3161;48.794;9.784;2022-08-19T13:23:40;19.80;99.90
6256;DHT22;3161;48.794;9.784;2022-08-19T13:26:09;19.80;99.90
6256;DHT22;3161;48.794;9.784;2022-08-19T13:28:38;19.80;99.90
6256;DHT22;3161;48.794;9.784;2022-08-19T13:31:26;19.70;99.90
6256;DHT22;3161;48.794;9.784;2022-08-19T13:34:13;19.70;99.90
6256;DHT22;3161;48.794;9.784;2022-08-19T13:36:41;19.80;99.90
6256;DHT22;3161;48.794;9.784;2022-08-19T13:39:09;19.80;99.90
6256;DHT22;3161;48.794;9.784;2022-08-19T13:41:42;19.80;99.90
6256;DHT22;3161;48.794;9.784;2022-08-19T13:44:07;19.80;99.90
6256;DHT22;3161;48.794;9.784;2022-08-19T13:46:35;19.80;99.90
6256;DHT22;3161;48.794;9.784;2022-08-19T13:49:02;19.80;99.90
6256;DHT22;3161;48.794;9.784;2022-08-19T13:51:30;19.90;99.90
6256;DHT22;3161;48.794;9.784;2022-08-19T13:53:58;19.90;99.90
6256;DHT22;3161;48.794;9.784;2022-08-19T13:56:25;19.90;99.90
6256;DHT22;3161;48.794;9.784;2022-08-19T13:58:53;20.00;99.90
6256;DHT22;3161;48.794;9.784;2022-08-19T14:01:23;20.00;99.90
6256;DHT22;3161;48.794;9.784;2022-08-19T14:03:51;20.00;99.90
6256;DHT22;3161;48.794;9.784;2022-08-19T14:06:19;20.00;99.90
6256;DHT22;3161;48.794;9.784;2022-08-19T14:08:48;20.00;99.90
6256;DHT22;3161;48.794;9.784;2022-08-19T14:11:16;20.00;99.90
6256;DHT22;3161;48.794;9.784;2022-08-19T14:13:44;20.00;99.90
6256;DHT22;3161;48.794;9.784;2022-08-19T14:16:13;20.00;99.90
6256;DHT22;3161;48.794;9.784;2022-08-19T14:18:42;20.00;99.90
6256;DHT22;3161;48.794;9.784;2022-08-19T14:21:17;20.00;99.90
6256;DHT22;3161;48.794;9.784;2022-08-19T14:23:46;20.00;99.90
6256;DHT22;3161;48.794;9.784;2022-08-19T14:26:16;20.00;99.90
6256;DHT22;3161;48.794;9.784;2022-08-19T14:28:44;20.00;99.90
6256;DHT22;3161;48.794;9.784;2022-08-19T14:31:14;20.00;99.90
6256;DHT22;3161;48.794;9.784;2022-08-19T14:33:43;20.10;99.90
6256;DHT22;3161;48.794;9.784;2022-08-19T14:36:11;20.10;99.90
6256;DHT22;3161;48.794;9.784;2022-08-19T14:38:39;20.10;99.90
6256;DHT22;3161;48.794;9.784;2022-08-19T14:41:21;20.20;99.90
6256;DHT22;3161;48.794;9.784;2022-08-19T14:43:50;20.20;99.90
6256;DHT22;3161;48.794;9.784;2022-08-19T14:46:21;20.20;99.90
6256;DHT22;3161;48.794;9.784;2022-08-19T14:48:49;20.20;99.90
6256;DHT22;3161;48.794;9.784;2022-08-19T14:51:18;20.30;99.90
6256;DHT22;3161;48.794;9.784;2022-08-19T14:53:46;20.30;99.90
6256;DHT22;3161;48.794;9.784;2022-08-19T14:56:20;20.40;99.90
6256;DHT22;3161;48.794;9.784;2022-08-19T14:58:48;20.40;99.90
6256;DHT22;3161;48.794;9.784;2022-08-19T15:01:20;20.40;99.90
6256;DHT22;3161;48.794;9.784;2022-08-19T15:03:49;20.50;99.90
6256;DHT22;3161;48.794;9.784;2022-08-19T15:06:19;20.50;99.90
6256;DHT22;3161;48.794;9.784;2022-08-19T15:08:47;20.50;99.90
6256;DHT22;3161;48.794;9.784;2022-08-19T15:11:19;20.50;99.90
6256;DHT22;3161;48.794;9.784;2022-08-19T15:13:48;20.50;99.90
6256;DHT22;3161;48.794;9.784;2022-08-19T15:16:17;20.50;99.90
6256;DHT22;3161;48.794;9.784;2022-08-19T15:18:46;20.60;99.90
6256;DHT22;3161;48.794;9.784;2022-08-19T15:21:14;20.60;99.90
6256;DHT22;3161;48.794;9.784;2022-08-19T15:23:46;20.60;99.90
6256;DHT22;3161;48.794;9.784;2022-08-19T15:26:17;20.60;99.90
6256;DHT22;3161;48.794;9.784;2022-08-19T15:28:45;20.60;99.90
6256;DHT22;3161;48.794;9.784;2022-08-19T15:31:17;20.60;99.90
6256;DHT22;3161;48.794;9.784;2022-08-19T15:33:44;20.70;99.90
6256;DHT22;3161;48.794;9.784;2022-08-19T15:36:12;20.60;99.90
6256;DHT22;3161;48.794;9.784;2022-08-19T15:38:40;20.60;99.90
6256;DHT22;3161;48.794;9.784;2022-08-19T15:41:20;20.60;99.90
6256;DHT22;3161;48.794;9.784;2022-08-19T15:43:59;20.60;99.90
6256;DHT22;3161;48.794;9.784;2022-08-19T15:46:32;20.50;99.90
6256;DHT22;3161;48.794;9.784;2022-08-19T15:49:00;20.50;99.90
6256;DHT22;3161;48.794;9.784;2022-08-19T15:51:30;20.40;99.90
6256;DHT22;3161;48.794;9.784;2022-08-19T15:54:00;20.40;99.90
6256;DHT22;3161;48.794;9.784;2022-08-19T15:56:28;20.40;99.90
6256;DHT22;3161;48.794;9.784;2022-08-19T15:59:13;20.40;99.90
6256;DHT22;3161;48.794;9.784;2022-08-19T16:01:59;20.40;99.90
6256;DHT22;3161;48.794;9.784;2022-08-19T16:04:45;20.40;99.90
6256;DHT22;3161;48.794;9.784;2022-08-19T16:07:30;20.40;99.90
6256;DHT22;3161;48.794;9.784;2022-08-19T16:09:58;20.40;99.90
6256;DHT22;3161;48.794;9.784;2022-08-19T16:12:25;20.40;99.90
6256;DHT22;3161;48.794;9.784;2022-08-19T16:14:55;20.30;99.90
6256;DHT22;3161;48.794;9.784;2022-08-19T16:17:23;20.20;99.90
6256;DHT22;3161;48.794;9.784;2022-08-19T16:19:51;20.20;99.90
6256;DHT22;3161;48.794;9.784;2022-08-19T16:22:19;20.10;99.90
6256;DHT22;3161;48.794;9.784;2022-08-19T16:24:47;20.10;99.90
6256;DHT22;3161;48.794;9.784;2022-08-19T16:27:15;20.00;99.90
6256;DHT22;3161;48.794;9.784;2022-08-19T16:29:43;20.00;99.90
6256;DHT22;3161;48.794;9.784;2022-08-19T16:32:11;20.00;99.90